Rickmers Dalian — V7FS3 — position and weather

sailwx.info

Track history (hours):
 
Tides and Currents Weather Stations Pressure Air Temp Water Temp Dewpoint Dewpoint Depression Visibility Wind Speed Wind Dir Waves Ship Positions

Rickmers Dalian

Last reported at 2016-Jul-25 06:31 UTC. Time now 2016-Jul-27 15:27 UTC.
Position N 27°10' W 115°10'.

Length 193 m; beam 27.8 m; draft 11.2 m.

Type: Ship. MMSI: 538090156.

Date/timePositionNaut miles runAvg speedWind from/ knotsBaromVisibWave heightAir tempDewpointWater temp
2016-Jul-25 06:31N 27°10' W 115°10'1414.7
2016-Jul-25 05:33N 27°21' W 115°19'1515.1
2016-Jul-25 04:33N 27°33' W 115°30'4614.8
2016-Jul-25 01:27N 28°09' W 116°01'1516.0
2016-Jul-25 00:31N 28°22' W 116°11'20115.5
2016-Jul-24 11:31N 31°32' W 117°25'1615.6
2016-Jul-24 10:31N 31°47' W 117°30'1615.8
2016-Jul-24 09:32N 32°02' W 117°36'1515.6
2016-Jul-24 08:33N 32°17' W 117°41'1515.3
2016-Jul-24 07:33N 32°31' W 117°47'1514.8
2016-Jul-24 06:33N 32°45' W 117°53'1616.1
2016-Jul-24 05:33N 33°01' W 117°59'1615.9
2016-Jul-24 04:33N 33°16' W 118°05'1211.8
2016-Jul-24 03:34N 33°27' W 118°10'1110.7
2016-Jul-24 02:33N 33°37' W 118°13'9 7.7
2016-Jul-24 01:26N 33°45' W 118°16'1 0.2
2016-Jul-23 20:27N 33°46' W 118°17'0 0.0
2016-Jul-23 19:33N 33°46' W 118°17'0 0.0
2016-Jul-23 18:27N 33°46' W 118°17'0 0.0
2016-Jul-23 17:33N 33°46' W 118°17'0 0.0
2016-Jul-23 16:33N 33°46' W 118°17'0 0.0
2016-Jul-23 15:15N 33°46' W 118°17'0 0.0
2016-Jul-23 14:33N 33°46' W 118°17'0 0.0
2016-Jul-23 13:27N 33°46' W 118°17'0 0.0
2016-Jul-23 09:33N 33°46' W 118°17'0 0.0
2016-Jul-22 22:12N 33°46' W 118°17'1 1.5
2016-Jul-22 21:33N 33°45' W 118°16'7 6.8
2016-Jul-22 20:33N 33°39' W 118°13'5 5.5
2016-Jul-22 19:33N 33°36' W 118°19'7 7.0
2016-Jul-22 18:33N 33°39' W 118°27'7 7.2
2016-Jul-22 17:33N 33°43' W 118°34'10 9.6
2016-Jul-22 16:33N 33°47' W 118°44'7 6.9
2016-Jul-22 15:33N 33°51' W 118°51'11 9.8
2016-Jul-22 14:27N 33°56' W 119°03'910.4
2016-Jul-22 13:33N 34°01' W 119°13'1111.0
2016-Jul-22 12:33N 34°04' W 119°25'1110.9
2016-Jul-22 11:33N 34°07' W 119°38'1313.2
2016-Jul-22 10:33N 34°11' W 119°53'1414.1
2016-Jul-22 09:33N 34°15' W 120°09'1413.4
2016-Jul-22 08:32N 34°18' W 120°25'1313.5
2016-Jul-22 07:33N 34°22' W 120°41'2613.0
2016-Jul-22 05:33N 34°25' W 121°12'1413.3
2016-Jul-22 04:31N 34°26' W 121°29'1313.6
2016-Jul-22 03:33N 34°26' W 121°45'1413.9
2016-Jul-22 02:34N 34°27' W 122°01'1413.8
2016-Jul-22 01:33N 34°28' W 122°18'1913.9
2016-Jul-22 00:10N 34°29' W 122°42'2513.9
2016-Jul-21 22:23N 34°30' W 123°11'1113.7
2016-Jul-21 21:34N 34°30' W 123°25'1211.7
2016-Jul-21 20:32N 34°31' W 123°40'2512.5
2016-Jul-21 18:30N 34°32' W 124°10'1213.0
2016-Jul-21 17:33N 34°33' W 124°25'1312.9
2016-Jul-21 16:32N 34°33' W 124°41'1413.1
2016-Jul-21 15:26N 34°34' W 124°59'  
Track history (hours):
 
Tides and Currents Weather Stations Pressure Air Temp Water Temp Dewpoint Dewpoint Depression Visibility Wind Speed Wind Dir Waves Ship Positions

Rickmers Dalian

Last reported at 2016-Jul-25 06:31 UTC. Time now 2016-Jul-27 15:27 UTC.
Position N 27°10' W 115°10'.

Length 193 m; beam 27.8 m; draft 11.2 m.

Type: Ship. MMSI: 538090156.

Date/timePositionNaut miles runAvg speedWind from/ knotsBaromVisibWave heightAir tempDewpointWater temp
2016-Jul-25 06:31N 27°10' W 115°10'1414.7
2016-Jul-25 05:33N 27°21' W 115°19'1515.1
2016-Jul-25 04:33N 27°33' W 115°30'4614.8
2016-Jul-25 01:27N 28°09' W 116°01'1516.0
2016-Jul-25 00:31N 28°22' W 116°11'20115.5
2016-Jul-24 11:31N 31°32' W 117°25'1615.6
2016-Jul-24 10:31N 31°47' W 117°30'1615.8
2016-Jul-24 09:32N 32°02' W 117°36'1515.6
2016-Jul-24 08:33N 32°17' W 117°41'1515.3
2016-Jul-24 07:33N 32°31' W 117°47'1514.8
2016-Jul-24 06:33N 32°45' W 117°53'1616.1
2016-Jul-24 05:33N 33°01' W 117°59'1615.9
2016-Jul-24 04:33N 33°16' W 118°05'1211.8
2016-Jul-24 03:34N 33°27' W 118°10'1110.7
2016-Jul-24 02:33N 33°37' W 118°13'9 7.7
2016-Jul-24 01:26N 33°45' W 118°16'1 0.2
2016-Jul-23 20:27N 33°46' W 118°17'0 0.0
2016-Jul-23 19:33N 33°46' W 118°17'0 0.0
2016-Jul-23 18:27N 33°46' W 118°17'0 0.0
2016-Jul-23 17:33N 33°46' W 118°17'0 0.0
2016-Jul-23 16:33N 33°46' W 118°17'0 0.0
2016-Jul-23 15:15N 33°46' W 118°17'0 0.0
2016-Jul-23 14:33N 33°46' W 118°17'0 0.0
2016-Jul-23 13:27N 33°46' W 118°17'0 0.0
2016-Jul-23 09:33N 33°46' W 118°17'0 0.0
2016-Jul-22 22:12N 33°46' W 118°17'1 1.5
2016-Jul-22 21:33N 33°45' W 118°16'7 6.8
2016-Jul-22 20:33N 33°39' W 118°13'5 5.5
2016-Jul-22 19:33N 33°36' W 118°19'7 7.0
2016-Jul-22 18:33N 33°39' W 118°27'7 7.2
2016-Jul-22 17:33N 33°43' W 118°34'10 9.6
2016-Jul-22 16:33N 33°47' W 118°44'7 6.9
2016-Jul-22 15:33N 33°51' W 118°51'11 9.8
2016-Jul-22 14:27N 33°56' W 119°03'910.4
2016-Jul-22 13:33N 34°01' W 119°13'1111.0
2016-Jul-22 12:33N 34°04' W 119°25'1110.9
2016-Jul-22 11:33N 34°07' W 119°38'1313.2
2016-Jul-22 10:33N 34°11' W 119°53'1414.1
2016-Jul-22 09:33N 34°15' W 120°09'1413.4
2016-Jul-22 08:32N 34°18' W 120°25'1313.5
2016-Jul-22 07:33N 34°22' W 120°41'2613.0
2016-Jul-22 05:33N 34°25' W 121°12'1413.3
2016-Jul-22 04:31N 34°26' W 121°29'1313.6
2016-Jul-22 03:33N 34°26' W 121°45'1413.9
2016-Jul-22 02:34N 34°27' W 122°01'1413.8
2016-Jul-22 01:33N 34°28' W 122°18'1913.9
2016-Jul-22 00:10N 34°29' W 122°42'2513.9
2016-Jul-21 22:23N 34°30' W 123°11'1113.7
2016-Jul-21 21:34N 34°30' W 123°25'1211.7
2016-Jul-21 20:32N 34°31' W 123°40'2512.5
2016-Jul-21 18:30N 34°32' W 124°10'1213.0
2016-Jul-21 17:33N 34°33' W 124°25'1312.9
2016-Jul-21 16:32N 34°33' W 124°41'1413.1
2016-Jul-21 15:26N 34°34' W 124°59'  

Dump ship's entire track history